Terminal Aerodrome Forecast
Issued by NWS Charleston, SC

Home | Current Version | Previous Version | Text Only | Print | Product List | Glossary On
Versions: 1 2 3 4 5 6 7 8 9 10 11 12 13 14 15 16 17 18 19 20 21 22 23 24 25 26 27
000
FTUS42 KCHS 220520
TAFSAV
TAF
KSAV 220520Z 2206/2306 28008KT P6SM SKC
     FM221400 30010KT P6SM SKC
     FM221700 27013G20KT P6SM SKC
     FM230000 26006KT P6SM SKC=

USA.gov is the U.S. government's official web portal to all federal, state and local government web resources and services.